createdAt,value
2019-03-27T06:05:30.325Z,3.20
2019-03-27T06:06:27.070Z,8.40
2019-03-27T06:07:26.914Z,8.70
2019-03-27T06:08:27.013Z,8.60
2019-03-27T06:09:27.012Z,9.30
2019-03-27T06:10:26.941Z,8.40
2019-03-27T06:11:26.892Z,9.20
2019-03-27T06:12:27.150Z,8.70
2019-03-27T06:13:27.050Z,9.70
2019-03-27T06:14:27.042Z,9.20
2019-03-27T06:15:26.927Z,9.30
2019-03-27T06:16:26.995Z,10.40
2019-03-27T06:17:27.137Z,8.80
2019-03-27T06:18:27.296Z,8.60
2019-03-27T06:19:27.019Z,8.70
2019-03-27T06:20:26.958Z,9.20
2019-03-27T06:21:26.892Z,9.00
2019-03-27T06:22:26.894Z,9.30
2019-03-27T06:23:26.976Z,10.90
2019-03-27T06:24:26.969Z,8.40
2019-03-27T06:25:26.910Z,8.30
2019-03-27T06:26:26.987Z,9.70
2019-03-27T06:27:26.908Z,8.10
2019-03-27T06:28:26.919Z,9.50
2019-03-27T06:29:26.941Z,9.60
2019-03-27T06:30:26.920Z,8.40
2019-03-27T06:31:26.939Z,9.00
2019-03-27T06:32:26.948Z,9.50
2019-03-27T06:33:26.964Z,10.20
2019-03-27T06:34:26.970Z,9.40
2019-03-27T06:35:26.938Z,8.10
2019-03-27T06:36:26.947Z,10.00
2019-03-27T06:37:26.965Z,10.50
2019-03-27T06:38:26.941Z,9.10
2019-03-27T06:39:26.981Z,9.60
2019-03-27T06:40:27.006Z,10.30
2019-03-27T06:41:26.968Z,8.60
2019-03-27T06:42:26.973Z,10.60
2019-03-27T06:43:27.020Z,7.60
2019-03-27T06:44:27.040Z,10.50
2019-03-27T06:45:27.037Z,9.80
2019-03-27T06:46:27.045Z,7.80
2019-03-27T06:47:26.985Z,9.40
2019-03-27T06:48:26.989Z,8.10
2019-03-27T06:49:26.983Z,11.30
2019-03-27T06:50:27.234Z,9.20
2019-03-27T06:51:39.444Z,11.60
2019-03-27T06:52:27.012Z,10.90
2019-03-27T06:53:27.010Z,10.40
2019-03-27T06:54:27.021Z,9.30
2019-03-27T06:55:27.027Z,8.30
2019-03-27T06:56:27.098Z,10.40
2019-03-27T06:57:27.026Z,9.80
2019-03-27T06:58:27.043Z,9.30
2019-03-27T06:59:27.056Z,11.10
2019-03-27T07:00:27.049Z,10.60
2019-03-27T07:01:27.096Z,11.10
2019-03-27T07:02:28.764Z,10.50
2019-03-27T07:03:27.258Z,10.20
2019-03-27T07:04:27.087Z,9.60
2019-03-27T07:05:27.095Z,10.40
2019-03-27T07:06:27.129Z,10.60
2019-03-27T07:07:27.078Z,10.50
2019-03-27T07:08:27.095Z,12.40
2019-03-27T07:09:27.096Z,10.30
2019-03-27T07:10:27.115Z,10.50
2019-03-27T07:11:27.151Z,10.70
2019-03-27T07:12:27.136Z,11.30
2019-03-27T07:13:27.127Z,10.80
2019-03-27T07:14:27.119Z,11.20
2019-03-27T07:15:27.230Z,11.10
2019-03-27T07:16:27.133Z,8.90
2019-03-27T07:17:27.415Z,9.70
2019-03-27T07:18:39.514Z,11.20
2019-03-27T07:19:27.155Z,11.00
2019-03-27T07:20:27.180Z,9.80
2019-03-27T07:21:27.157Z,11.50
2019-03-27T07:22:27.190Z,10.50
2019-03-27T07:23:27.201Z,9.00
2019-03-27T07:24:27.206Z,8.90
2019-03-27T07:25:27.167Z,10.90
2019-03-27T07:26:27.182Z,9.20
2019-03-27T07:27:27.189Z,8.80
2019-03-27T07:28:27.249Z,9.70
2019-03-27T07:29:27.520Z,9.20
2019-03-27T07:30:27.266Z,9.50
2019-03-27T07:31:27.203Z,9.60
2019-03-27T07:32:27.237Z,11.00
2019-03-27T07:33:27.272Z,10.90
2019-03-27T07:34:27.434Z,8.40
2019-03-27T07:35:27.295Z,9.70
2019-03-27T07:36:27.292Z,8.90
2019-03-27T07:37:27.248Z,8.40
2019-03-27T07:38:27.239Z,8.90
2019-03-27T07:39:27.246Z,8.10
2019-03-27T07:40:27.315Z,10.50
2019-03-27T07:41:27.266Z,8.40
2019-03-27T07:42:28.883Z,9.00
2019-03-27T07:43:27.285Z,10.60
2019-03-27T07:44:27.286Z,8.60
2019-03-27T07:45:27.288Z,10.00
2019-03-27T07:46:27.395Z,7.70
2019-03-27T07:47:27.372Z,10.20
2019-03-27T07:48:27.312Z,10.50
2019-03-27T07:49:27.341Z,9.70
2019-03-27T07:50:27.295Z,9.90
2019-03-27T07:51:27.348Z,9.60
2019-03-27T07:52:27.338Z,9.60
2019-03-27T07:53:27.379Z,9.20
2019-03-27T07:54:27.342Z,10.50
2019-03-27T07:55:27.361Z,9.80
2019-03-27T07:56:27.370Z,8.70
2019-03-27T07:57:27.383Z,10.70
2019-03-27T07:58:27.383Z,10.30
2019-03-27T07:59:27.426Z,9.50
2019-03-27T08:00:27.391Z,10.30
2019-03-27T08:01:27.448Z,10.80
2019-03-27T08:02:27.433Z,8.40
2019-03-27T08:03:27.409Z,8.90
2019-03-27T08:04:27.409Z,8.60
2019-03-27T08:05:27.416Z,8.30
2019-03-27T08:06:27.694Z,10.80
2019-03-27T08:07:27.458Z,9.20
2019-03-27T08:08:27.460Z,10.90
2019-03-27T08:09:27.467Z,10.10
2019-03-27T08:10:27.423Z,8.70
2019-03-27T08:11:27.519Z,8.80
2019-03-27T08:12:27.442Z,8.70
2019-03-27T08:13:27.450Z,9.20
2019-03-27T08:14:27.497Z,9.10
2019-03-27T08:15:27.501Z,8.80
2019-03-27T08:16:27.496Z,8.40
2019-03-27T08:17:27.500Z,9.20
2019-03-27T08:18:27.718Z,7.90
2019-03-27T08:19:27.505Z,8.20
2019-03-27T08:20:27.521Z,8.20
2019-03-27T08:21:30.882Z,8.50
2019-03-27T08:22:27.553Z,8.10
2019-03-27T08:23:27.561Z,10.70
2019-03-27T08:24:27.624Z,7.60
2019-03-27T08:25:27.547Z,7.90
2019-03-27T08:26:27.534Z,8.40
2019-03-27T08:27:27.566Z,5.60
2019-03-27T08:28:27.747Z,7.40
2019-03-27T08:29:27.545Z,7.40
2019-03-27T08:30:27.608Z,7.20
2019-03-27T08:31:27.682Z,6.30
2019-03-27T08:32:27.599Z,6.30
2019-03-27T08:33:27.577Z,5.20
2019-03-27T08:34:27.716Z,6.60
2019-03-27T08:35:27.625Z,7.30
2019-03-27T08:36:27.644Z,8.00
2019-03-27T08:37:27.627Z,8.90
2019-03-27T08:38:27.676Z,9.70
2019-03-27T08:39:27.883Z,8.50
2019-03-27T08:40:27.630Z,8.70
2019-03-27T08:41:27.707Z,7.70
2019-03-27T08:42:27.757Z,10.30
2019-03-27T08:43:27.713Z,8.70
2019-03-27T08:44:27.716Z,7.60
2019-03-27T08:45:27.861Z,7.70
2019-03-27T08:46:27.819Z,9.10
2019-03-27T08:47:27.711Z,8.50
2019-03-27T08:48:27.756Z,10.80
2019-03-27T08:49:27.694Z,9.00
2019-03-27T08:50:27.753Z,10.00
2019-03-27T08:51:27.699Z,9.30
2019-03-27T08:52:27.884Z,10.40
2019-03-27T08:53:27.804Z,10.30
2019-03-27T08:54:27.724Z,9.10
2019-03-27T08:55:27.742Z,8.70
2019-03-27T08:56:27.733Z,8.40
2019-03-27T08:57:27.762Z,10.50
2019-03-27T08:58:27.773Z,8.30
2019-03-27T08:59:27.804Z,8.50
2019-03-27T09:00:27.758Z,9.60
2019-03-27T09:01:27.764Z,10.60
2019-03-27T09:02:27.766Z,10.70
2019-03-27T09:03:27.772Z,12.90
2019-03-27T09:04:27.787Z,10.70
2019-03-27T09:05:27.834Z,11.10
2019-03-27T09:06:33.536Z,11.00
2019-03-27T09:07:27.832Z,10.30
2019-03-27T09:08:27.886Z,9.50
2019-03-27T09:09:27.870Z,12.30
2019-03-27T09:10:27.852Z,9.50
2019-03-27T09:11:27.839Z,12.20
2019-03-27T09:12:27.884Z,9.80
2019-03-27T09:13:27.869Z,9.20
2019-03-27T09:14:27.884Z,10.20
2019-03-27T09:15:27.901Z,11.50
2019-03-27T09:16:27.971Z,10.70
2019-03-27T09:17:27.899Z,11.50
2019-03-27T09:18:27.910Z,11.40
2019-03-27T09:19:35.584Z,9.80
2019-03-27T09:20:27.971Z,9.60
2019-03-27T09:21:27.918Z,11.20
2019-03-27T09:22:27.935Z,12.10
2019-03-27T09:23:27.905Z,12.10
2019-03-27T09:24:27.905Z,9.00
2019-03-27T09:25:27.974Z,9.40
2019-03-27T09:26:28.035Z,11.90
2019-03-27T09:27:27.970Z,12.40
2019-03-27T09:28:27.933Z,8.70
2019-03-27T09:29:27.969Z,10.00
2019-03-27T09:30:28.040Z,9.10
2019-03-27T09:31:28.034Z,8.60
2019-03-27T09:32:28.004Z,8.60
2019-03-27T09:33:28.016Z,8.10
2019-03-27T09:34:28.021Z,10.10
2019-03-27T09:35:27.981Z,9.90
2019-03-27T09:36:28.049Z,8.70
2019-03-27T09:37:28.136Z,8.00
2019-03-27T09:38:28.111Z,10.90
2019-03-27T09:39:28.055Z,9.10
2019-03-27T09:40:28.142Z,9.00
2019-03-27T09:41:28.071Z,8.30
2019-03-27T09:42:28.089Z,11.10
2019-03-27T09:43:28.079Z,9.50
2019-03-27T09:44:28.045Z,9.40
2019-03-27T09:45:28.085Z,10.50
2019-03-27T09:46:28.097Z,10.70
2019-03-27T09:47:28.108Z,8.50
2019-03-27T09:48:28.130Z,9.20
2019-03-27T09:49:28.108Z,10.00
2019-03-27T09:50:28.125Z,9.40
2019-03-27T09:51:28.126Z,11.30
2019-03-27T09:52:28.130Z,11.00
2019-03-27T09:53:28.150Z,8.00
2019-03-27T09:54:28.159Z,9.20
2019-03-27T09:55:28.167Z,8.30
2019-03-27T09:56:28.154Z,9.40
2019-03-27T09:57:28.165Z,8.80
2019-03-27T09:58:28.246Z,10.00
2019-03-27T09:59:28.181Z,9.90
2019-03-27T10:00:28.189Z,7.50
2019-03-27T10:01:28.202Z,7.40
2019-03-27T10:02:28.260Z,8.80
2019-03-27T10:03:28.238Z,8.50
2019-03-27T10:04:28.263Z,8.90
2019-03-27T10:05:28.258Z,7.70
2019-03-27T10:06:28.266Z,8.10
2019-03-27T10:07:28.270Z,7.70
2019-03-27T10:08:28.304Z,9.30
2019-03-27T10:09:28.255Z,8.10
2019-03-27T10:10:28.261Z,10.20
2019-03-27T10:11:28.269Z,7.30
2019-03-27T10:12:28.299Z,11.30
2019-03-27T10:13:28.310Z,10.10
2019-03-27T10:14:28.333Z,7.30
2019-03-27T10:15:28.320Z,8.70
2019-03-27T10:16:28.364Z,9.50
2019-03-27T10:17:28.353Z,6.60
2019-03-27T10:18:28.317Z,8.40
2019-03-27T10:19:28.371Z,7.40
2019-03-27T10:20:28.386Z,8.30
2019-03-27T10:21:28.362Z,8.60
2019-03-27T10:22:28.340Z,8.20
2019-03-27T10:23:28.408Z,6.80
2019-03-27T10:24:28.380Z,9.30
2019-03-27T10:25:28.471Z,8.00
2019-03-27T10:26:28.375Z,8.20
2019-03-27T10:27:28.391Z,8.30
2019-03-27T10:28:28.405Z,8.10
2019-03-27T10:29:28.409Z,5.80
2019-03-27T10:30:37.437Z,8.80
2019-03-27T10:31:28.417Z,7.20
2019-03-27T10:32:28.525Z,7.10
2019-03-27T10:33:28.424Z,8.40
2019-03-27T10:34:28.418Z,8.30
2019-03-27T10:35:28.444Z,8.20
2019-03-27T10:36:28.451Z,8.80
2019-03-27T10:37:28.539Z,6.80
2019-03-27T10:38:28.456Z,8.60
2019-03-27T10:39:28.464Z,6.50
2019-03-27T10:40:28.487Z,8.00
2019-03-27T10:41:28.609Z,9.10
2019-03-27T10:42:28.500Z,8.00
2019-03-27T10:43:28.505Z,9.70
2019-03-27T10:44:28.507Z,8.30
2019-03-27T10:45:28.520Z,8.40
2019-03-27T10:46:28.636Z,8.20
2019-03-27T10:47:28.558Z,7.80
2019-03-27T10:48:28.545Z,6.60
2019-03-27T10:49:28.552Z,8.80
2019-03-27T10:50:28.611Z,7.80
2019-03-27T10:51:28.561Z,6.30
2019-03-27T10:52:28.583Z,8.40
2019-03-27T10:53:28.573Z,8.80
2019-03-27T10:54:28.706Z,6.30
2019-03-27T10:55:28.597Z,7.90
2019-03-27T10:56:28.590Z,7.50
2019-03-27T10:57:28.606Z,7.30
2019-03-27T10:58:28.604Z,9.30
2019-03-27T10:59:28.745Z,5.90
2019-03-27T11:00:28.638Z,7.00
2019-03-27T11:01:28.789Z,7.10
2019-03-27T11:02:28.680Z,8.90
2019-03-27T11:03:28.684Z,6.00
2019-03-27T11:04:28.662Z,7.60
2019-03-27T11:05:28.654Z,7.60
2019-03-27T11:06:28.680Z,7.80
2019-03-27T11:07:28.679Z,7.80
2019-03-27T11:08:28.775Z,6.10
2019-03-27T11:09:28.683Z,7.50
2019-03-27T11:10:28.793Z,7.50
2019-03-27T11:11:28.712Z,7.10
2019-03-27T11:12:28.753Z,7.60
2019-03-27T11:13:28.787Z,6.70
2019-03-27T11:14:37.796Z,6.90
2019-03-27T11:15:28.727Z,7.00
2019-03-27T11:16:28.769Z,8.00
2019-03-27T11:17:28.778Z,7.70
2019-03-27T11:18:28.753Z,7.50
2019-03-27T11:19:28.783Z,7.00
2019-03-27T11:20:31.207Z,7.80
2019-03-27T11:21:28.773Z,7.50
2019-03-27T11:22:28.779Z,7.70
2019-03-27T11:23:28.791Z,6.50
2019-03-27T11:24:29.087Z,6.30
2019-03-27T11:25:28.823Z,6.90
2019-03-27T11:26:28.867Z,9.10
2019-03-27T11:27:28.825Z,7.40
2019-03-27T11:28:28.820Z,9.30
2019-03-27T11:29:28.890Z,7.20
2019-03-27T11:30:28.847Z,8.10
2019-03-27T11:31:28.885Z,6.20
2019-03-27T11:32:28.950Z,8.40
2019-03-27T11:33:29.134Z,7.70
2019-03-27T11:34:28.929Z,7.70
2019-03-27T11:35:28.878Z,10.30
2019-03-27T11:36:28.907Z,9.90
2019-03-27T11:37:28.887Z,7.40
2019-03-27T11:38:28.937Z,7.50
2019-03-27T11:39:28.950Z,8.50
2019-03-27T11:40:28.973Z,7.80
2019-03-27T11:41:28.922Z,8.10
2019-03-27T11:42:28.948Z,8.60
2019-03-27T11:43:28.952Z,7.60
2019-03-27T11:44:28.937Z,9.60
2019-03-27T11:45:28.992Z,7.10
2019-03-27T11:46:32.101Z,10.60
2019-03-27T11:47:28.967Z,8.30
2019-03-27T11:48:29.014Z,10.60
2019-03-27T11:49:29.059Z,7.80
2019-03-27T11:50:29.009Z,7.30
2019-03-27T11:51:29.017Z,7.40
2019-03-27T11:52:29.911Z,6.30
2019-03-27T11:53:29.023Z,8.70
2019-03-27T11:54:29.108Z,7.70
2019-03-27T11:55:29.048Z,7.90
2019-03-27T11:56:29.069Z,10.10
2019-03-27T11:57:29.067Z,7.80
2019-03-27T11:58:29.108Z,11.00
2019-03-27T11:59:29.068Z,8.10
2019-03-27T12:00:29.103Z,7.90
2019-03-27T12:01:38.905Z,8.20
2019-03-27T12:02:29.125Z,7.50
2019-03-27T12:03:29.165Z,7.40
2019-03-27T12:04:29.117Z,8.00
2019-03-27T12:05:29.154Z,7.70
2019-03-27T12:06:29.135Z,8.10
2019-03-27T12:07:29.155Z,7.50
2019-03-27T12:08:29.138Z,7.60
2019-03-27T12:09:29.163Z,7.60
2019-03-27T12:10:29.151Z,8.30
2019-03-27T12:11:29.178Z,8.60
2019-03-27T12:12:29.167Z,8.60
2019-03-27T12:13:29.179Z,8.80
2019-03-27T12:14:29.220Z,7.30
2019-03-27T12:15:29.191Z,6.20
2019-03-27T12:16:29.223Z,5.90
2019-03-27T12:17:29.204Z,7.10
2019-03-27T12:18:31.841Z,7.70
2019-03-27T12:19:29.274Z,11.40
2019-03-27T12:20:29.232Z,10.60
2019-03-27T12:21:29.240Z,11.40
2019-03-27T12:22:29.278Z,9.90
2019-03-27T12:23:29.319Z,7.70
2019-03-27T12:24:29.262Z,11.90
2019-03-27T12:25:29.303Z,7.30
2019-03-27T12:26:29.299Z,11.20
2019-03-27T12:27:29.295Z,9.60
2019-03-27T12:28:29.295Z,9.80
2019-03-27T12:29:29.362Z,9.00
2019-03-27T12:30:29.334Z,9.50
2019-03-27T12:31:29.313Z,9.40
2019-03-27T12:32:29.325Z,10.00
2019-03-27T12:33:29.361Z,11.80
2019-03-27T12:34:29.368Z,12.00
2019-03-27T12:35:29.376Z,8.30
2019-03-27T12:36:29.401Z,11.20
2019-03-27T12:37:29.381Z,10.30
2019-03-27T12:38:29.381Z,9.10
2019-03-27T12:39:29.447Z,6.60
2019-03-27T12:40:29.404Z,7.10
2019-03-27T12:41:29.416Z,8.60
2019-03-27T12:42:29.419Z,7.60
2019-03-27T12:43:29.421Z,8.50
2019-03-27T12:44:29.449Z,5.70
2019-03-27T12:45:29.461Z,6.80
2019-03-27T12:46:29.455Z,6.30
2019-03-27T12:47:29.450Z,6.50
2019-03-27T12:48:29.462Z,6.50
2019-03-27T12:49:29.464Z,6.40
2019-03-27T12:50:29.509Z,5.50
2019-03-27T12:51:29.489Z,9.30
2019-03-27T12:52:29.491Z,9.10
2019-03-27T12:53:29.493Z,7.50
2019-03-27T12:54:29.529Z,12.40
2019-03-27T12:55:29.555Z,7.60
2019-03-27T12:56:29.531Z,8.10
2019-03-27T12:57:29.543Z,7.00
2019-03-27T12:58:29.530Z,8.30
2019-03-27T12:59:29.529Z,8.40
2019-03-27T13:00:29.538Z,7.90
2019-03-27T13:01:29.616Z,7.30
2019-03-27T13:02:29.553Z,8.00
2019-03-27T13:03:29.560Z,8.20
2019-03-27T13:04:29.577Z,6.40
2019-03-27T13:05:29.593Z,7.60
2019-03-27T13:06:29.642Z,7.90
2019-03-27T13:07:29.596Z,8.60
2019-03-27T13:08:29.612Z,7.70
2019-03-27T13:09:29.635Z,9.50
2019-03-27T13:10:29.672Z,6.00
2019-03-27T13:11:29.822Z,6.50
2019-03-27T13:12:29.639Z,6.10
2019-03-27T13:13:29.646Z,5.80
2019-03-27T13:14:29.649Z,7.20
2019-03-27T13:15:29.686Z,7.40
2019-03-27T13:16:29.697Z,6.30
2019-03-27T13:17:29.724Z,8.30
2019-03-27T13:18:29.688Z,6.70
2019-03-27T13:19:29.743Z,5.80
2019-03-27T13:20:29.699Z,7.70
2019-03-27T13:21:29.723Z,6.60
2019-03-27T13:22:29.797Z,7.60
2019-03-27T13:23:29.756Z,8.80
2019-03-27T13:24:29.716Z,7.00
2019-03-27T13:25:29.731Z,8.10
2019-03-27T13:26:29.765Z,7.90
2019-03-27T13:27:29.736Z,6.20
2019-03-27T13:28:29.751Z,6.40
2019-03-27T13:29:29.798Z,5.40
2019-03-27T13:30:29.757Z,5.80
2019-03-27T13:31:29.770Z,6.50
2019-03-27T13:32:29.771Z,5.60
2019-03-27T13:33:29.856Z,6.60
2019-03-27T13:34:29.861Z,5.00
2019-03-27T13:35:29.801Z,5.10
2019-03-27T13:36:29.805Z,6.00
2019-03-27T13:37:29.855Z,5.60
2019-03-27T13:38:29.816Z,5.10
2019-03-27T13:39:29.868Z,4.80
2019-03-27T13:40:29.872Z,4.80
2019-03-27T13:41:29.841Z,6.10
2019-03-27T13:42:29.844Z,6.40
2019-03-27T13:43:29.855Z,7.30
2019-03-27T13:44:36.792Z,7.70
2019-03-27T13:45:29.890Z,5.20
2019-03-27T13:46:29.907Z,8.00
2019-03-27T13:47:29.882Z,5.00
2019-03-27T13:48:29.911Z,4.70
2019-03-27T13:49:29.921Z,4.30
2019-03-27T13:50:30.017Z,4.90
2019-03-27T13:51:40.605Z,4.40
2019-03-27T13:52:29.920Z,5.50
2019-03-27T13:53:29.948Z,4.80
2019-03-27T13:54:29.950Z,4.60
2019-03-27T13:55:29.983Z,5.70
2019-03-27T13:56:29.969Z,6.80
2019-03-27T13:57:29.985Z,3.70
2019-03-27T13:58:30.000Z,4.40
2019-03-27T13:59:29.985Z,3.40
2019-03-27T14:00:30.006Z,3.50
2019-03-27T14:01:30.029Z,3.80
2019-03-27T14:02:30.076Z,3.50
2019-03-27T14:03:30.036Z,3.80
2019-03-27T14:04:30.037Z,4.20
2019-03-27T14:05:30.027Z,3.80
2019-03-27T14:06:30.051Z,4.60
2019-03-27T14:07:30.057Z,3.80
2019-03-27T14:08:30.071Z,4.40
2019-03-27T14:09:30.101Z,4.30
2019-03-27T14:10:30.078Z,4.80
2019-03-27T14:11:30.096Z,4.60
2019-03-27T14:12:30.085Z,4.00
2019-03-27T14:13:30.137Z,4.90
2019-03-27T14:14:30.110Z,4.40
2019-03-27T14:15:30.106Z,4.40
2019-03-27T14:16:30.173Z,7.20
2019-03-27T14:17:30.138Z,5.20
2019-03-27T14:18:30.159Z,5.00
2019-03-27T14:19:30.235Z,5.80
2019-03-27T14:20:30.168Z,4.10
2019-03-27T14:21:30.157Z,4.20
2019-03-27T14:22:30.159Z,5.00
2019-03-27T14:23:30.155Z,4.10
2019-03-27T14:24:30.200Z,4.60
2019-03-27T14:25:30.173Z,5.70
2019-03-27T14:26:44.084Z,4.20
2019-03-27T14:27:30.236Z,4.00
2019-03-27T14:28:30.245Z,3.70
2019-03-27T14:29:30.205Z,5.50
2019-03-27T14:30:30.212Z,4.60
2019-03-27T14:31:30.289Z,4.70
2019-03-27T14:32:30.242Z,9.70
2019-03-27T14:33:30.296Z,4.10
2019-03-27T14:34:30.260Z,3.70
2019-03-27T14:35:30.261Z,3.20
2019-03-27T14:36:30.258Z,4.90
2019-03-27T14:37:30.277Z,3.40
2019-03-27T14:38:30.318Z,3.40
2019-03-27T14:39:30.333Z,3.60
2019-03-27T14:40:30.327Z,4.30
2019-03-27T14:41:30.295Z,3.80
2019-03-27T14:42:30.325Z,4.00
2019-03-27T14:43:30.310Z,3.70
2019-03-27T14:44:30.324Z,4.80
2019-03-27T14:45:30.462Z,4.70
2019-03-27T14:46:30.337Z,4.10
2019-03-27T14:47:30.341Z,3.80
2019-03-27T14:48:30.407Z,3.30
2019-03-27T14:49:30.360Z,3.60
2019-03-27T14:50:30.417Z,3.40
2019-03-27T14:51:30.410Z,4.00
2019-03-27T14:52:30.380Z,4.00
2019-03-27T14:53:30.384Z,4.30
2019-03-27T14:54:30.431Z,3.80
2019-03-27T14:55:30.398Z,3.90
2019-03-27T14:56:30.459Z,4.20
2019-03-27T14:57:30.441Z,4.40
2019-03-27T14:58:30.426Z,5.00
2019-03-27T14:59:30.436Z,4.50
2019-03-27T15:00:30.435Z,5.20
2019-03-27T15:01:30.486Z,5.00
2019-03-27T15:02:30.450Z,5.40
2019-03-27T15:03:30.472Z,4.40
2019-03-27T15:04:30.460Z,4.70
2019-03-27T15:05:30.510Z,4.60
2019-03-27T15:06:30.492Z,5.00
2019-03-27T15:07:30.510Z,4.70
2019-03-27T15:08:30.497Z,4.60
2019-03-27T15:09:30.492Z,6.50
2019-03-27T15:10:30.518Z,5.80
2019-03-27T15:11:30.508Z,5.20
2019-03-27T15:12:30.549Z,6.30
2019-03-27T15:13:30.535Z,5.50
2019-03-27T15:14:30.542Z,6.20
2019-03-27T15:15:30.536Z,5.40
2019-03-27T15:16:30.599Z,5.20
2019-03-27T15:17:30.583Z,5.30
2019-03-27T15:18:30.577Z,5.10
2019-03-27T15:19:30.566Z,5.30
2019-03-27T15:20:30.672Z,6.00
2019-03-27T15:21:30.594Z,5.40
2019-03-27T15:22:30.613Z,5.80
2019-03-27T15:23:30.635Z,6.60
2019-03-27T15:24:30.637Z,5.70
2019-03-27T15:25:30.608Z,5.90
2019-03-27T15:26:30.648Z,5.10
2019-03-27T15:27:30.627Z,6.00
2019-03-27T15:28:30.701Z,6.40
2019-03-27T15:29:30.650Z,6.00
2019-03-27T15:30:30.710Z,5.60
2019-03-27T15:31:30.782Z,5.30
2019-03-27T15:32:30.659Z,6.20
2019-03-27T15:33:30.709Z,6.40
2019-03-27T15:34:30.714Z,6.20
2019-03-27T15:35:30.838Z,6.00
2019-03-27T15:36:30.728Z,6.50
2019-03-27T15:37:30.706Z,5.80
2019-03-27T15:38:30.709Z,6.30
2019-03-27T15:39:30.760Z,5.70
2019-03-27T15:40:30.759Z,6.90
2019-03-27T15:41:30.765Z,6.70
2019-03-27T15:42:30.740Z,7.40
2019-03-27T15:43:30.775Z,6.50
2019-03-27T15:44:30.779Z,6.00
2019-03-27T15:45:30.841Z,7.70
2019-03-27T15:46:30.794Z,6.40
2019-03-27T15:47:30.797Z,6.70
2019-03-27T15:48:30.784Z,5.80
2019-03-27T15:49:30.792Z,6.50
2019-03-27T15:50:30.942Z,7.60
2019-03-27T15:51:30.922Z,6.60
2019-03-27T15:52:36.448Z,5.70
2019-03-27T15:53:30.877Z,6.20
2019-03-27T15:54:30.965Z,7.70
2019-03-27T15:55:30.859Z,5.70
2019-03-27T15:56:31.084Z,6.00
2019-03-27T15:57:30.861Z,6.50
2019-03-27T15:58:30.854Z,6.20
2019-03-27T15:59:30.858Z,5.80
2019-03-27T16:00:30.882Z,6.00
2019-03-27T16:01:30.909Z,6.00
2019-03-27T16:02:31.020Z,8.50
2019-03-27T16:03:30.884Z,6.10
2019-03-27T16:04:30.930Z,6.40
2019-03-27T16:05:31.693Z,5.50
2019-03-27T16:06:30.954Z,7.80
2019-03-27T16:07:31.355Z,6.40
2019-03-27T16:08:31.075Z,5.60
2019-03-27T16:09:30.932Z,5.80
2019-03-27T16:10:30.957Z,6.60
2019-03-27T16:11:30.967Z,6.40
2019-03-27T16:12:31.001Z,5.40
2019-03-27T16:13:31.009Z,5.10
2019-03-27T16:14:30.985Z,5.90
2019-03-27T16:15:31.043Z,6.20
2019-03-27T16:16:30.976Z,6.20
2019-03-27T16:17:31.107Z,5.10
2019-03-27T16:18:31.034Z,5.20
2019-03-27T16:19:31.279Z,6.30
2019-03-27T16:20:31.062Z,5.80
2019-03-27T16:21:31.021Z,5.40
2019-03-27T16:22:31.062Z,7.10
2019-03-27T16:23:32.434Z,5.90
2019-03-27T16:24:31.093Z,6.90
2019-03-27T16:25:31.101Z,6.80
2019-03-27T16:26:31.067Z,5.50
2019-03-27T16:27:31.111Z,6.60
2019-03-27T16:28:31.173Z,5.90
2019-03-27T16:29:31.110Z,6.80
2019-03-27T16:30:31.549Z,6.60
2019-03-27T16:31:31.094Z,5.70
2019-03-27T16:32:31.085Z,6.80
2019-03-27T16:33:31.105Z,5.80
2019-03-27T16:34:31.123Z,7.30
2019-03-27T16:35:31.136Z,6.60
2019-03-27T16:36:31.169Z,7.80
2019-03-27T16:37:31.169Z,5.80
2019-03-27T16:38:31.263Z,6.10
2019-03-27T16:39:31.163Z,8.10
2019-03-27T16:40:31.225Z,7.70
2019-03-27T16:41:31.171Z,6.20
2019-03-27T16:42:31.161Z,6.40
2019-03-27T16:43:31.195Z,7.70
2019-03-27T16:44:31.251Z,6.10
2019-03-27T16:45:31.200Z,7.80
2019-03-27T16:46:31.198Z,6.40
2019-03-27T16:47:31.214Z,7.70
2019-03-27T16:48:31.286Z,7.70
2019-03-27T16:49:31.228Z,7.20
2019-03-27T16:50:31.260Z,7.00
2019-03-27T16:51:31.273Z,6.50
2019-03-27T16:52:31.255Z,7.50
2019-03-27T16:53:31.244Z,7.10
2019-03-27T16:54:31.266Z,7.30
2019-03-27T16:55:31.269Z,8.70
2019-03-27T16:56:31.865Z,7.80
2019-03-27T16:57:31.292Z,7.40
2019-03-27T16:58:31.259Z,6.60
2019-03-27T16:59:31.286Z,8.80
2019-03-27T17:00:31.307Z,6.40
2019-03-27T17:01:31.333Z,7.80
2019-03-27T17:02:31.416Z,7.40
2019-03-27T17:03:31.297Z,8.20
2019-03-27T17:04:31.318Z,9.50
2019-03-27T17:05:31.324Z,10.00
2019-03-27T17:06:31.344Z,7.00
2019-03-27T17:07:31.369Z,6.20
2019-03-27T17:08:31.347Z,7.80
2019-03-27T17:09:31.364Z,7.90
2019-03-27T17:10:31.368Z,9.20
2019-03-27T17:11:31.399Z,8.20
2019-03-27T17:12:31.676Z,8.40
2019-03-27T17:13:31.397Z,7.50
2019-03-27T17:14:31.373Z,8.30
2019-03-27T17:15:31.416Z,7.70
2019-03-27T17:16:32.376Z,7.30
2019-03-27T17:17:31.459Z,7.80
2019-03-27T17:18:31.417Z,8.40
2019-03-27T17:19:31.423Z,7.00
2019-03-27T17:20:31.434Z,7.50
2019-03-27T17:21:31.427Z,8.60
2019-03-27T17:22:31.468Z,7.70
2019-03-27T17:23:31.455Z,7.00
2019-03-27T17:24:31.469Z,8.00
2019-03-27T17:25:31.549Z,8.60
2019-03-27T17:26:31.475Z,7.00
2019-03-27T17:27:31.472Z,6.70
2019-03-27T17:28:31.646Z,7.30
2019-03-27T17:29:31.484Z,6.90
2019-03-27T17:30:33.369Z,9.90
2019-03-27T17:31:31.857Z,8.00
2019-03-27T17:32:31.512Z,8.10
2019-03-27T17:33:31.608Z,7.80
2019-03-27T17:34:31.515Z,8.30
2019-03-27T17:35:31.507Z,9.00
2019-03-27T17:36:31.513Z,7.80
2019-03-27T17:37:31.590Z,8.30
2019-03-27T17:38:31.591Z,6.60
2019-03-27T17:39:31.541Z,6.20
2019-03-27T17:40:31.561Z,7.00
2019-03-27T17:41:31.572Z,7.00
